createdAt,value
2023-04-05T00:01:58.743Z,2.67
2023-04-05T00:06:57.624Z,2.92
2023-04-05T00:11:56.941Z,1.80
2023-04-05T00:16:56.501Z,2.20
2023-04-05T00:21:54.846Z,2.40
2023-04-05T00:26:53.068Z,2.35
2023-04-05T00:31:51.440Z,5.22
2023-04-05T00:36:51.412Z,5.72
2023-04-05T00:41:49.743Z,2.47
2023-04-05T00:46:47.918Z,1.92
2023-04-05T00:51:46.573Z,1.80
2023-04-05T00:56:46.290Z,1.80
2023-04-05T01:01:55.231Z,2.00
2023-04-05T01:07:06.422Z,2.30
2023-04-05T01:12:08.254Z,2.30
2023-04-05T01:17:09.706Z,3.70
2023-04-05T01:22:17.433Z,5.47
2023-04-05T01:27:21.039Z,5.32
2023-04-05T01:32:37.861Z,3.15
2023-04-05T01:37:36.580Z,2.60
2023-04-05T01:42:34.897Z,3.63
2023-04-05T01:47:34.521Z,3.47
2023-04-05T01:52:33.239Z,2.80
2023-04-05T01:57:31.638Z,2.70
2023-04-05T02:02:29.887Z,2.80
2023-04-05T02:07:29.502Z,2.72
2023-04-05T02:12:27.666Z,2.58
2023-04-05T02:17:26.126Z,14.57
2023-04-05T02:22:24.326Z,21.88
2023-04-05T02:27:24.037Z,24.95
2023-04-05T02:32:26.214Z,5.93
2023-04-05T02:37:26.188Z,3.35
2023-04-05T02:42:25.790Z,11.32
2023-04-05T02:47:24.050Z,12.13
2023-04-05T02:52:26.577Z,17.40
2023-04-05T02:57:26.349Z,21.27
2023-04-05T03:02:32.695Z,18.45
2023-04-05T03:07:33.062Z,16.33
2023-04-05T03:12:35.199Z,16.83
2023-04-05T03:17:33.969Z,20.23
2023-04-05T03:22:34.537Z,38.92
2023-04-05T03:27:35.178Z,19.33
2023-04-05T03:32:38.246Z,26.63
2023-04-05T03:37:56.540Z,22.17
2023-04-05T03:42:56.519Z,20.02
2023-04-05T03:47:55.343Z,27.70
2023-04-05T03:52:53.775Z,31.55
2023-04-05T03:57:55.625Z,27.35
2023-04-05T04:03:00.454Z,22.23
2023-04-05T04:07:59.546Z,29.45
2023-04-05T04:12:57.936Z,23.38
2023-04-05T04:18:02.241Z,21.52
2023-04-05T04:23:17.062Z,20.00
2023-04-05T04:28:34.961Z,16.38
2023-04-05T04:33:48.203Z,16.77
2023-04-05T04:39:10.335Z,16.83
2023-04-05T04:44:31.519Z,16.58
2023-04-05T04:49:51.824Z,29.73
2023-04-05T04:54:50.967Z,17.02
2023-04-05T04:59:50.193Z,20.13
2023-04-05T05:04:48.358Z,18.80
2023-04-05T05:09:48.007Z,14.02
2023-04-05T05:14:46.152Z,16.85
2023-04-05T05:19:44.298Z,14.45
2023-04-05T05:24:42.705Z,14.60
2023-04-05T05:29:42.401Z,15.80
2023-04-05T05:34:40.688Z,18.48
2023-04-05T05:39:39.107Z,15.15
2023-04-05T05:44:37.450Z,11.50
2023-04-05T05:49:36.966Z,16.85
2023-04-05T05:54:35.134Z,13.48
2023-04-05T05:59:33.304Z,11.80
2023-04-05T06:04:31.576Z,13.52
2023-04-05T06:09:33.954Z,14.13
2023-04-05T06:14:32.088Z,12.57
2023-04-05T06:19:30.248Z,15.55
2023-04-05T06:24:31.803Z,22.00
2023-04-05T06:29:31.451Z,18.73
2023-04-05T06:34:29.895Z,12.32
2023-04-05T06:39:28.060Z,10.27
2023-04-05T06:44:26.209Z,12.98
2023-04-05T06:49:25.673Z,12.95
2023-04-05T06:54:25.003Z,10.40
2023-04-05T06:59:23.179Z,9.40
2023-04-05T07:04:21.368Z,12.70
2023-04-05T07:09:22.324Z,14.55
2023-04-05T07:14:20.626Z,14.38
2023-04-05T07:19:18.929Z,13.40
2023-04-05T07:24:17.140Z,9.70
2023-04-05T07:29:16.758Z,11.00
2023-04-05T07:34:14.914Z,10.35
2023-04-05T07:39:13.070Z,7.93
2023-04-05T07:44:11.644Z,7.70
2023-04-05T07:49:11.299Z,9.43
2023-04-05T07:54:09.469Z,9.32
2023-04-05T07:59:07.739Z,11.55
2023-04-05T08:04:05.999Z,9.32
2023-04-05T08:09:05.830Z,6.63
2023-04-05T08:14:04.097Z,9.23
2023-04-05T08:19:02.334Z,6.47
2023-04-05T08:24:00.756Z,6.20
2023-04-05T08:29:00.685Z,8.45
2023-04-05T08:33:58.898Z,8.25
2023-04-05T08:38:57.009Z,8.57
2023-04-05T08:43:57.676Z,8.55
2023-04-05T08:48:58.232Z,6.95
2023-04-05T08:53:56.491Z,6.78
2023-04-05T08:58:58.947Z,6.60
2023-04-05T09:04:00.051Z,5.47
2023-04-05T09:08:58.663Z,6.53
2023-04-05T09:13:56.800Z,5.05
2023-04-05T09:18:54.899Z,5.35
2023-04-05T09:23:55.872Z,10.43
2023-04-05T09:28:54.186Z,9.35
2023-04-05T09:33:52.322Z,7.00
2023-04-05T09:38:50.453Z,9.75
2023-04-05T09:43:49.961Z,14.65
2023-04-05T09:48:48.503Z,5.60
2023-04-05T09:53:59.942Z,5.35
2023-04-05T09:59:04.439Z,4.90
2023-04-05T10:04:03.107Z,7.47
2023-04-05T10:09:01.449Z,8.80
2023-04-05T10:14:01.895Z,5.68
2023-04-05T10:19:03.009Z,4.97
2023-04-05T10:24:05.905Z,5.50
2023-04-05T10:29:10.296Z,6.57
2023-04-05T10:34:15.563Z,5.47
2023-04-05T10:39:14.862Z,5.05
2023-04-05T10:44:24.791Z,5.60
2023-04-05T10:49:30.442Z,8.18
2023-04-05T10:54:29.633Z,6.18
2023-04-05T10:59:28.866Z,5.53
2023-04-05T11:04:28.447Z,6.05
2023-04-05T11:09:27.117Z,6.20
2023-04-05T11:14:26.435Z,7.05
2023-04-05T11:19:39.439Z,8.18
2023-04-05T11:24:53.149Z,6.45
2023-04-05T11:29:51.386Z,7.30
2023-04-05T11:34:59.892Z,7.32
2023-04-05T11:40:12.929Z,11.95
2023-04-05T11:45:12.535Z,7.75
2023-04-05T11:50:11.179Z,7.45
2023-04-05T11:55:11.844Z,8.32
2023-04-05T12:00:10.663Z,6.97
2023-04-05T12:05:11.210Z,8.88
2023-04-05T12:10:11.873Z,11.95
2023-04-05T12:15:11.889Z,8.60
2023-04-05T12:20:12.334Z,9.18
2023-04-05T12:25:11.105Z,7.18
2023-04-05T12:30:10.581Z,7.55
2023-04-05T12:35:11.532Z,8.00
2023-04-05T12:40:12.059Z,8.20
2023-04-05T12:45:13.807Z,6.35
2023-04-05T12:50:13.026Z,6.38
2023-04-05T12:55:17.403Z,10.63
2023-04-05T13:00:16.150Z,8.95
2023-04-05T13:05:14.298Z,10.60
2023-04-05T13:10:12.492Z,7.03
2023-04-05T13:15:12.235Z,6.53
2023-04-05T13:20:11.089Z,6.63
2023-04-05T13:25:10.820Z,6.95
2023-04-05T13:30:09.248Z,6.95
2023-04-05T13:35:09.312Z,7.50
2023-04-05T13:40:08.176Z,10.23
2023-04-05T13:45:06.876Z,7.65
2023-04-05T13:50:08.611Z,5.55
2023-04-05T13:55:07.239Z,8.75
2023-04-05T14:00:06.545Z,6.47
2023-04-05T14:10:11.653Z,8.98
2023-04-05T14:15:10.114Z,8.68
2023-04-05T14:20:08.846Z,9.57
2023-04-05T14:25:08.351Z,34.40
2023-04-05T14:30:08.893Z,51.72
2023-04-05T14:35:07.610Z,28.95
2023-04-05T14:40:06.268Z,27.83
2023-04-05T14:45:04.680Z,25.15
2023-04-05T14:50:04.528Z,19.70
2023-04-05T14:55:02.927Z,18.50
2023-04-05T15:00:01.382Z,16.23
2023-04-05T15:05:00.769Z,18.88
2023-04-05T15:10:00.488Z,28.67
2023-04-05T15:14:58.955Z,12.73
2023-04-05T15:19:57.162Z,62.25
2023-04-05T15:24:56.378Z,26.70
2023-04-05T15:29:55.982Z,21.17
2023-04-05T15:34:54.423Z,33.33
2023-04-05T15:39:52.675Z,57.90
2023-04-05T15:44:51.229Z,41.95
2023-04-05T15:49:51.654Z,42.40
2023-04-05T15:54:50.044Z,32.42
2023-04-05T15:59:48.283Z,26.05
2023-04-05T16:04:46.514Z,17.13
2023-04-05T16:09:46.275Z,24.52
2023-04-05T16:14:44.550Z,23.17
2023-04-05T16:19:42.770Z,21.65
2023-04-05T16:24:40.994Z,24.30
2023-04-05T16:29:40.796Z,24.10
2023-04-05T16:34:39.052Z,23.15
2023-04-05T16:39:37.442Z,22.52
2023-04-05T16:44:35.910Z,19.98
2023-04-05T16:49:37.357Z,13.05
2023-04-05T16:54:35.618Z,17.30
2023-04-05T16:59:33.873Z,20.17
2023-04-05T17:04:32.469Z,20.67
2023-04-05T17:09:33.221Z,18.52
2023-04-05T17:14:31.555Z,65.82
2023-04-05T17:19:29.816Z,31.33
2023-04-05T17:24:28.069Z,27.13
2023-04-05T17:29:27.663Z,46.92
2023-04-05T17:34:25.925Z,20.30
2023-04-05T17:39:24.143Z,37.38
2023-04-05T17:44:22.371Z,29.13
2023-04-05T17:49:22.156Z,16.02
2023-04-05T17:54:20.616Z,39.35
2023-04-05T17:59:18.981Z,26.40
2023-04-05T18:04:17.324Z,37.78
2023-04-05T18:09:17.208Z,24.08
2023-04-05T18:14:15.509Z,31.50
2023-04-05T18:19:17.572Z,24.45
2023-04-05T18:24:17.474Z,13.73
2023-04-05T18:29:15.765Z,19.13
2023-04-05T18:34:14.104Z,18.20
2023-04-05T18:39:14.772Z,16.42
2023-04-05T18:44:14.586Z,16.08
2023-04-05T18:49:15.312Z,24.70
2023-04-05T18:54:14.123Z,13.30
2023-04-05T18:59:12.610Z,14.32
2023-04-05T19:04:12.359Z,14.90
2023-04-05T19:09:10.716Z,11.27
2023-04-05T19:14:09.118Z,8.80
2023-04-05T19:19:07.568Z,16.10
2023-04-05T19:24:09.786Z,30.10
2023-04-05T19:29:08.549Z,31.38
2023-04-05T19:34:07.310Z,18.95
2023-04-05T19:39:07.779Z,16.50
2023-04-05T19:44:09.122Z,15.68
2023-04-05T19:49:09.647Z,12.80
2023-04-05T19:54:13.158Z,14.45
2023-04-05T19:59:29.133Z,14.95
2023-04-05T20:04:28.242Z,14.90
2023-04-05T20:09:29.360Z,14.35
2023-04-05T20:14:29.025Z,13.27
2023-04-05T20:19:28.817Z,12.43
2023-04-05T20:24:29.427Z,11.88
2023-04-05T20:29:28.325Z,12.07
2023-04-05T20:34:29.328Z,11.35
2023-04-05T20:39:28.966Z,11.80
2023-04-05T20:44:29.145Z,11.25
2023-04-05T20:49:28.147Z,10.05
2023-04-05T20:54:26.489Z,10.60
2023-04-05T20:59:26.677Z,11.68
2023-04-05T21:04:25.054Z,10.02
2023-04-05T21:09:23.577Z,11.98
2023-04-05T21:14:21.831Z,9.98
2023-04-05T21:19:21.450Z,9.75
2023-04-05T21:24:19.850Z,9.68
2023-04-05T21:29:18.067Z,13.23
2023-04-05T21:34:16.327Z,18.75
2023-04-05T21:39:16.042Z,15.57
2023-04-05T21:44:14.811Z,9.18
2023-04-05T21:49:13.128Z,10.75
2023-04-05T21:54:11.346Z,12.18
2023-04-05T21:59:11.157Z,20.00
2023-04-05T22:04:09.538Z,13.57
2023-04-05T22:09:08.023Z,15.35
2023-04-05T22:14:06.575Z,12.18
2023-04-05T22:19:07.929Z,12.45
2023-04-05T22:24:06.598Z,17.52
2023-04-05T22:29:05.082Z,12.25
2023-04-05T22:34:03.356Z,21.05
2023-04-05T22:39:02.941Z,22.48
2023-04-05T22:44:01.273Z,19.92
2023-04-05T22:48:59.506Z,22.88
2023-04-05T22:53:57.722Z,25.92
2023-04-05T22:58:57.350Z,14.90
2023-04-05T23:03:55.628Z,13.57
2023-04-05T23:08:53.853Z,11.55
2023-04-05T23:13:52.136Z,15.43
2023-04-05T23:18:51.924Z,14.18
2023-04-05T23:23:50.236Z,13.35
2023-04-05T23:28:48.509Z,16.60
2023-04-05T23:33:46.763Z,14.95
2023-04-05T23:38:46.391Z,13.00
2023-04-05T23:43:44.714Z,19.35
2023-04-05T23:48:42.969Z,12.98
2023-04-05T23:53:41.281Z,12.65
2023-04-05T23:58:42.354Z,11.80
